Time,TemperatureF,DewpointF,PressureIn,WindDirection,WindDirectionDegrees,WindSpeedMPH,WindSpeedGustMPH,Humidity,HourlyPrecipIn,Conditions,Clouds,dailyrainin,SoftwareType,DateUTC
2013-06-09 00:00:00,61.5,58.8,29.93,ESE,118,0.0,0.0,91,0.00,,---,1.01,VWS V14.01,2013-06-09 04:00:00,
2013-06-09 00:01:00,61.4,58.8,29.93,ESE,118,0.0,0.0,91,0.00,,---,1.01,VWS V14.01,2013-06-09 04:01:00,
2013-06-09 00:02:00,61.4,58.8,29.93,ESE,118,0.0,0.0,91,0.00,,---,0.00,VWS V14.01,2013-06-09 04:02:00,
2013-06-09 00:03:00,61.4,58.8,29.93,ESE,118,0.0,0.0,91,0.00,,---,0.00,VWS V14.01,2013-06-09 04:03:00,
2013-06-09 00:07:00,61.3,58.7,29.93,ESE,118,0.0,0.0,91,0.00,,---,0.00,VWS V14.01,2013-06-09 04:07:00,
2013-06-09 00:12:00,61.3,59.0,29.94,ESE,118,0.0,0.0,92,0.00,,---,0.00,VWS V14.01,2013-06-09 04:12:00,
2013-06-09 00:17:00,61.1,58.8,29.94,ESE,118,0.0,0.0,92,0.00,,---,0.00,VWS V14.01,2013-06-09 04:17:00,
2013-06-09 00:22:00,60.9,58.6,29.94,ESE,118,0.0,0.0,92,0.00,,---,0.00,VWS V14.01,2013-06-09 04:22:00,
2013-06-09 00:27:00,60.7,58.4,29.94,ESE,118,0.0,0.0,92,0.00,,---,0.00,VWS V14.01,2013-06-09 04:27:00,
2013-06-09 00:32:00,60.5,58.2,29.94,ESE,118,0.0,0.0,92,0.00,,---,0.00,VWS V14.01,2013-06-09 04:32:00,
2013-06-09 00:37:00,60.4,58.4,29.94,ESE,118,0.0,0.0,93,0.00,,---,0.00,VWS V14.01,2013-06-09 04:37:00,
2013-06-09 00:42:00,60.1,57.8,29.94,ESE,118,0.0,0.0,92,0.00,,---,0.00,VWS V14.01,2013-06-09 04:42:00,
2013-06-09 00:47:00,59.9,57.6,29.95,ESE,118,0.0,0.0,92,0.00,,---,0.00,VWS V14.01,2013-06-09 04:47:00,
2013-06-09 00:52:00,59.8,57.8,29.95,ESE,118,0.0,0.0,93,0.00,,---,0.00,VWS V14.01,2013-06-09 04:52:00,
2013-06-09 00:57:00,59.7,57.7,29.95,ESE,118,0.0,0.0,93,0.00,,---,0.00,VWS V14.01,2013-06-09 04:57:00,
2013-06-09 01:02:00,59.6,57.6,29.95,ESE,118,0.0,0.0,93,0.00,,---,0.00,VWS V14.01,2013-06-09 05:02:00,
2013-06-09 01:07:00,59.4,57.4,29.95,ESE,118,0.0,0.0,93,0.00,,---,0.00,VWS V14.01,2013-06-09 05:07:00,
2013-06-09 01:12:00,59.3,57.3,29.95,ESE,118,0.0,0.0,93,0.00,,---,0.00,VWS V14.01,2013-06-09 05:12:00,
2013-06-09 01:17:00,59.1,57.1,29.96,ESE,118,0.0,0.0,93,0.00,,---,0.00,VWS V14.01,2013-06-09 05:17:00,
2013-06-09 01:22:00,59.0,57.0,29.95,ESE,118,0.0,0.0,93,0.00,,---,0.00,VWS V14.01,2013-06-09 05:22:00,
2013-06-09 01:27:00,59.0,57.3,29.95,ESE,118,0.0,0.0,94,0.00,,---,0.00,VWS V14.01,2013-06-09 05:27:00,
2013-06-09 01:32:00,59.0,57.3,29.95,ESE,118,0.0,0.0,94,0.00,,---,0.00,VWS V14.01,2013-06-09 05:32:00,
2013-06-09 01:38:00,58.9,57.2,29.96,ESE,118,1.0,2.0,94,0.00,,---,0.00,VWS V14.01,2013-06-09 05:38:00,
2013-06-09 01:43:00,58.7,57.0,29.96,ESE,118,0.0,2.0,94,0.00,,---,0.00,VWS V14.01,2013-06-09 05:43:00,
2013-06-09 01:48:00,58.4,56.7,29.96,ESE,118,0.0,2.0,94,0.00,,---,0.00,VWS V14.01,2013-06-09 05:48:00,
2013-06-09 01:53:00,58.2,56.5,29.96,ESE,118,0.0,2.0,94,0.00,,---,0.00,VWS V14.01,2013-06-09 05:53:00,
2013-06-09 01:58:00,58.1,56.4,29.97,ESE,118,0.0,2.0,94,0.00,,---,0.00,VWS V14.01,2013-06-09 05:58:00,
2013-06-09 02:03:00,58.1,56.4,29.97,ESE,118,0.0,0.0,94,0.00,,---,0.00,VWS V14.01,2013-06-09 06:03:00,
2013-06-09 02:08:00,57.9,56.2,29.97,ESE,118,0.0,0.0,94,0.00,,---,0.00,VWS V14.01,2013-06-09 06:08:00,
2013-06-09 02:13:00,57.7,56.0,29.97,ESE,118,0.0,0.0,94,0.00,,---,0.00,VWS V14.01,2013-06-09 06:13:00,
2013-06-09 02:18:00,57.6,55.9,29.97,ESE,118,0.0,0.0,94,0.00,,---,0.00,VWS V14.01,2013-06-09 06:18:00,
2013-06-09 02:23:00,57.4,55.7,29.97,ESE,118,0.0,0.0,94,0.00,,---,0.00,VWS V14.01,2013-06-09 06:23:00,
2013-06-09 02:28:00,57.3,55.6,29.97,ESE,118,0.0,0.0,94,0.00,,---,0.00,VWS V14.01,2013-06-09 06:28:00,
2013-06-09 02:33:00,57.2,55.5,29.97,ESE,118,0.0,0.0,94,0.00,,---,0.00,VWS V14.01,2013-06-09 06:33:00,
2013-06-09 02:38:00,57.1,55.7,29.97,ESE,118,0.0,0.0,95,0.00,,---,0.00,VWS V14.01,2013-06-09 06:38:00,
2013-06-09 02:43:00,57.0,55.6,29.97,ESE,118,0.0,1.0,95,0.00,,---,0.00,VWS V14.01,2013-06-09 06:43:00,
2013-06-09 02:48:00,56.9,55.5,29.97,ESE,118,0.0,1.0,95,0.00,,---,0.00,VWS V14.01,2013-06-09 06:48:00,
2013-06-09 02:53:00,56.9,55.5,29.97,ESE,118,0.0,1.0,95,0.00,,---,0.00,VWS V14.01,2013-06-09 06:53:00,
2013-06-09 02:58:00,56.8,55.4,29.97,ESE,118,0.0,1.0,95,0.00,,---,0.00,VWS V14.01,2013-06-09 06:58:00,
2013-06-09 03:03:00,56.8,55.4,29.97,ESE,118,0.0,0.0,95,0.00,,---,0.00,VWS V14.01,2013-06-09 07:03:00,
2013-06-09 03:08:00,56.9,55.5,29.97,ESE,118,0.0,0.0,95,0.00,,---,0.00,VWS V14.01,2013-06-09 07:08:00,
2013-06-09 03:13:00,56.9,55.5,29.98,ESE,118,0.0,0.0,95,0.00,,---,0.00,VWS V14.01,2013-06-09 07:13:00,
2013-06-09 03:18:00,56.9,55.5,29.98,ESE,118,0.0,0.0,95,0.00,,---,0.00,VWS V14.01,2013-06-09 07:18:00,
2013-06-09 03:24:00,56.8,55.4,29.98,ESE,118,0.0,0.0,95,0.00,,---,0.00,VWS V14.01,2013-06-09 07:24:00,
2013-06-09 03:29:00,56.6,55.2,29.98,ESE,118,0.0,0.0,95,0.00,,---,0.00,VWS V14.01,2013-06-09 07:29:00,
2013-06-09 03:34:00,56.5,55.1,29.98,ESE,118,0.0,0.0,95,0.00,,---,0.00,VWS V14.01,2013-06-09 07:34:00,
2013-06-09 03:39:00,56.3,54.9,29.98,ESE,118,0.0,0.0,95,0.00,,---,0.00,VWS V14.01,2013-06-09 07:39:00,
2013-06-09 03:44:00,56.2,54.8,29.98,ESE,118,0.0,0.0,95,0.00,,---,0.00,VWS V14.01,2013-06-09 07:44:00,
2013-06-09 03:49:00,56.2,54.8,29.98,ESE,118,0.0,0.0,95,0.00,,---,0.00,VWS V14.01,2013-06-09 07:49:00,
2013-06-09 03:54:00,56.1,54.7,29.98,ESE,118,0.0,0.0,95,0.00,,---,0.00,VWS V14.01,2013-06-09 07:54:00,
2013-06-09 03:59:00,56.0,54.6,29.98,ESE,118,0.0,0.0,95,0.00,,---,0.00,VWS V14.01,2013-06-09 07:59:00,
2013-06-09 04:04:00,55.8,54.4,29.98,ESE,118,0.0,0.0,95,0.00,,---,0.00,VWS V14.01,2013-06-09 08:04:00,
2013-06-09 04:09:00,55.6,54.2,29.98,ESE,118,0.0,0.0,95,0.00,,---,0.00,VWS V14.01,2013-06-09 08:09:00,
2013-06-09 04:14:00,55.5,54.1,29.99,ESE,118,0.0,0.0,95,0.00,,---,0.00,VWS V14.01,2013-06-09 08:14:00,
2013-06-09 04:19:00,55.4,54.0,29.99,ESE,118,0.0,1.0,95,0.00,,---,0.00,VWS V14.01,2013-06-09 08:19:00,
2013-06-09 04:24:00,55.3,53.9,29.99,ESE,118,0.0,1.0,95,0.00,,---,0.00,VWS V14.01,2013-06-09 08:24:00,
2013-06-09 04:29:00,55.3,53.9,29.99,ESE,118,0.0,1.0,95,0.00,,---,0.00,VWS V14.01,2013-06-09 08:29:00,
2013-06-09 04:34:00,55.1,53.7,29.99,ESE,118,0.0,0.0,95,0.00,,---,0.00,VWS V14.01,2013-06-09 08:34:00,
2013-06-09 04:39:00,55.1,53.7,29.99,ESE,118,0.0,0.0,95,0.00,,---,0.00,VWS V14.01,2013-06-09 08:39:00,
2013-06-09 04:44:00,55.1,53.7,29.99,ESE,118,0.0,1.0,95,0.00,,---,0.00,VWS V14.01,2013-06-09 08:44:00,
2013-06-09 04:50:00,55.0,53.6,29.99,ESE,118,0.0,1.0,95,0.00,,---,0.00,VWS V14.01,2013-06-09 08:50:00,
2013-06-09 04:55:00,54.9,53.5,29.99,ESE,118,0.0,1.0,95,0.00,,---,0.00,VWS V14.01,2013-06-09 08:55:00,
2013-06-09 05:00:00,54.8,53.4,29.99,ESE,118,0.0,1.0,95,0.00,,---,0.00,VWS V14.01,2013-06-09 09:00:00,
2013-06-09 05:05:00,54.7,53.3,29.99,ESE,118,0.0,0.0,95,0.00,,---,0.00,VWS V14.01,2013-06-09 09:05:00,
2013-06-09 05:10:00,54.6,53.5,29.99,ESE,118,0.0,0.0,96,0.00,,---,0.00,VWS V14.01,2013-06-09 09:10:00,
2013-06-09 05:15:00,54.6,53.5,30.00,ESE,118,0.0,0.0,96,0.00,,---,0.00,VWS V14.01,2013-06-09 09:15:00,
2013-06-09 05:20:00,54.7,53.6,29.99,ESE,118,0.0,0.0,96,0.00,,---,0.00,VWS V14.01,2013-06-09 09:20:00,
2013-06-09 05:25:00,54.8,53.7,29.99,ESE,118,0.0,0.0,96,0.00,,---,0.00,VWS V14.01,2013-06-09 09:25:00,
2013-06-09 05:30:00,54.9,53.8,29.99,ESE,118,0.0,0.0,96,0.00,,---,0.00,VWS V14.01,2013-06-09 09:30:00,
2013-06-09 05:35:00,55.0,53.9,29.99,ESE,118,0.0,0.0,96,0.00,,---,0.00,VWS V14.01,2013-06-09 09:35:00,
2013-06-09 05:40:00,55.1,54.0,29.99,ESE,118,0.0,0.0,96,0.00,,---,0.00,VWS V14.01,2013-06-09 09:40:00,
2013-06-09 05:45:00,55.0,53.9,29.99,ESE,118,0.0,0.0,96,0.00,,---,0.00,VWS V14.01,2013-06-09 09:45:00,
2013-06-09 05:50:00,54.9,53.8,30.00,ESE,118,0.0,0.0,96,0.00,,---,0.00,VWS V14.01,2013-06-09 09:50:00,
2013-06-09 05:55:00,54.9,53.8,30.00,ESE,118,0.0,0.0,96,0.00,,---,0.00,VWS V14.01,2013-06-09 09:55:00,
2013-06-09 06:00:00,55.0,53.9,30.00,ESE,118,0.0,0.0,96,0.00,,---,0.00,VWS V14.01,2013-06-09 10:00:00,
2013-06-09 06:05:00,55.1,54.0,30.00,ESE,118,0.0,0.0,96,0.00,,---,0.00,VWS V14.01,2013-06-09 10:05:00,
2013-06-09 06:10:00,55.1,54.0,30.00,ESE,118,0.0,0.0,96,0.00,,---,0.00,VWS V14.01,2013-06-09 10:10:00,
2013-06-09 06:15:00,55.3,54.2,30.00,ESE,118,0.0,0.0,96,0.00,,---,0.00,VWS V14.01,2013-06-09 10:15:00,
2013-06-09 06:20:00,55.5,54.7,30.00,ESE,118,0.0,0.0,97,0.00,,---,0.00,VWS V14.01,2013-06-09 10:20:00,
2013-06-09 06:25:00,55.8,55.0,30.00,ESE,118,0.0,0.0,97,0.00,,---,0.00,VWS V14.01,2013-06-09 10:25:00,
2013-06-09 06:30:00,56.0,55.2,30.01,ESE,118,0.0,0.0,97,0.00,,---,0.00,VWS V14.01,2013-06-09 10:30:00,
2013-06-09 06:35:00,56.2,55.4,30.01,ESE,118,0.0,0.0,97,0.00,,---,0.00,VWS V14.01,2013-06-09 10:35:00,
2013-06-09 06:41:00,56.4,55.6,30.01,ESE,118,0.0,0.0,97,0.00,,---,0.00,VWS V14.01,2013-06-09 10:41:00,
2013-06-09 06:46:00,56.7,55.9,30.01,ESE,118,0.0,0.0,97,0.00,,---,0.00,VWS V14.01,2013-06-09 10:46:00,
2013-06-09 06:51:00,57.1,56.3,30.02,ESE,118,0.0,1.0,97,0.00,,---,0.00,VWS V14.01,2013-06-09 10:51:00,
2013-06-09 06:56:00,57.6,56.8,30.02,ESE,119,0.0,1.0,97,0.00,,---,0.00,VWS V14.01,2013-06-09 10:56:00,
2013-06-09 07:01:00,58.0,57.2,30.02,ESE,118,0.0,1.0,97,0.00,,---,0.00,VWS V14.01,2013-06-09 11:01:00,
2013-06-09 07:06:00,58.3,57.5,30.02,ESE,118,0.0,0.0,97,0.00,,---,0.00,VWS V14.01,2013-06-09 11:06:00,
2013-06-09 07:11:00,58.7,57.8,30.02,ESE,118,0.0,2.0,97,0.00,,---,0.00,VWS V14.01,2013-06-09 11:11:00,
2013-06-09 07:16:00,59.1,58.2,30.02,ESE,118,0.0,2.0,97,0.00,,---,0.00,VWS V14.01,2013-06-09 11:16:00,
2013-06-09 07:21:00,59.5,58.7,30.02,ESE,118,0.0,2.0,97,0.00,,---,0.00,VWS V14.01,2013-06-09 11:21:00,
2013-06-09 07:26:00,60.0,59.2,30.02,ESE,118,0.0,2.0,97,0.00,,---,0.00,VWS V14.01,2013-06-09 11:26:00,
2013-06-09 07:32:00,60.7,59.8,30.02,ESE,118,0.0,0.0,97,0.00,,---,0.00,VWS V14.01,2013-06-09 11:32:00,
2013-06-09 07:37:00,61.4,60.2,30.03,ESE,118,0.0,1.0,96,0.00,,---,0.00,VWS V14.01,2013-06-09 11:37:00,
2013-06-09 07:42:00,62.3,60.6,30.03,ESE,118,0.0,1.0,94,0.00,,---,0.00,VWS V14.01,2013-06-09 11:42:00,
2013-06-09 07:47:00,63.0,60.3,30.03,ESE,118,0.0,2.0,91,0.00,,---,0.00,VWS V14.01,2013-06-09 11:47:00,
2013-06-09 07:52:00,63.7,60.4,30.03,ESE,118,3.0,3.0,89,0.00,,---,0.00,VWS V14.01,2013-06-09 11:52:00,
2013-06-09 07:57:00,64.3,60.3,30.03,ESE,118,0.0,4.0,87,0.00,,---,0.00,VWS V14.01,2013-06-09 11:57:00,
2013-06-09 08:02:00,64.9,60.3,30.03,ESE,118,0.0,1.0,85,0.00,,---,0.00,VWS V14.01,2013-06-09 12:02:00,
2013-06-09 08:08:00,65.6,60.6,30.04,ESE,118,0.0,1.0,84,0.00,,---,0.00,VWS V14.01,2013-06-09 12:08:00,
2013-06-09 08:13:00,66.0,60.3,30.04,ENE,69,3.0,6.0,82,0.00,,---,0.00,VWS V14.01,2013-06-09 12:13:00,
2013-06-09 08:18:00,66.3,60.7,30.04,ENE,69,0.0,6.0,82,0.00,,---,0.00,VWS V14.01,2013-06-09 12:18:00,
2013-06-09 08:23:00,66.8,60.4,30.04,ENE,69,2.0,6.0,80,0.00,,---,0.00,VWS V14.01,2013-06-09 12:23:00,
2013-06-09 08:28:00,67.1,60.4,30.04,ENE,69,0.0,6.0,79,0.00,,---,0.00,VWS V14.01,2013-06-09 12:28:00,
2013-06-09 08:33:00,67.3,59.8,30.04,SSE,165,0.0,2.0,77,0.00,,---,0.00,VWS V14.01,2013-06-09 12:33:00,
2013-06-09 08:38:00,67.4,59.6,30.04,SSE,155,1.0,7.0,76,0.00,,---,0.00,VWS V14.01,2013-06-09 12:38:00,
2013-06-09 08:43:00,67.6,60.1,30.04,SSE,155,1.0,7.0,77,0.00,,---,0.00,VWS V14.01,2013-06-09 12:43:00,
2013-06-09 08:48:00,67.6,60.1,30.04,SSE,162,0.0,7.0,77,0.00,,---,0.00,VWS V14.01,2013-06-09 12:48:00,
2013-06-09 08:53:00,67.8,59.6,30.04,SSE,162,2.0,7.0,75,0.00,,---,0.00,VWS V14.01,2013-06-09 12:53:00,
2013-06-09 08:58:00,68.0,59.8,30.04,SSE,162,0.0,7.0,75,0.00,,---,0.00,VWS V14.01,2013-06-09 12:58:00,
2013-06-09 09:03:00,68.3,60.1,30.04,SE,126,0.0,5.0,75,0.00,,---,0.00,VWS V14.01,2013-06-09 13:03:00,
2013-06-09 09:08:00,68.8,60.2,30.04,SE,126,3.0,5.0,74,0.00,,---,0.00,VWS V14.01,2013-06-09 13:08:00,
2013-06-09 09:13:00,68.8,59.4,30.04,SE,138,1.0,5.0,72,0.00,,---,0.00,VWS V14.01,2013-06-09 13:13:00,
2013-06-09 09:18:00,68.9,60.3,30.04,SE,138,2.0,5.0,74,0.00,,---,0.00,VWS V14.01,2013-06-09 13:18:00,
2013-06-09 09:23:00,69.2,59.8,30.04,SE,138,0.0,5.0,72,0.00,,---,0.00,VWS V14.01,2013-06-09 13:23:00,
2013-06-09 09:28:00,69.5,59.3,30.04,SE,128,1.0,5.0,70,0.00,,---,0.00,VWS V14.01,2013-06-09 13:28:00,
2013-06-09 09:33:00,69.7,59.5,30.04,SE,128,0.0,3.0,70,0.00,,---,0.00,VWS V14.01,2013-06-09 13:33:00,
2013-06-09 09:38:00,70.0,61.0,30.04,SE,128,2.0,3.0,73,0.00,,---,0.00,VWS V14.01,2013-06-09 13:38:00,
2013-06-09 09:43:00,70.6,60.3,30.04,SE,128,0.0,3.0,70,0.00,,---,0.00,VWS V14.01,2013-06-09 13:43:00,
2013-06-09 09:48:00,70.9,60.2,30.04,SE,128,0.0,3.0,69,0.00,,---,0.00,VWS V14.01,2013-06-09 13:48:00,
2013-06-09 09:54:00,71.3,60.2,30.04,SE,128,0.0,3.0,68,0.00,,---,0.00,VWS V14.01,2013-06-09 13:54:00,
2013-06-09 09:59:00,71.4,59.9,30.04,SSE,167,0.0,6.0,67,0.00,,---,0.00,VWS V14.01,2013-06-09 13:59:00,
2013-06-09 10:04:00,71.2,59.7,30.04,SSE,167,0.0,0.0,67,0.00,,---,0.00,VWS V14.01,2013-06-09 14:04:00,
2013-06-09 10:09:00,71.5,58.7,30.04,SSE,167,0.0,0.0,64,0.00,,---,0.00,VWS V14.01,2013-06-09 14:09:00,
2013-06-09 10:14:00,71.8,59.0,30.04,ESE,111,0.0,0.0,64,0.00,,---,0.00,VWS V14.01,2013-06-09 14:14:00,
2013-06-09 10:19:00,72.2,58.9,30.04,ESE,109,0.0,0.0,63,0.00,,---,0.00,VWS V14.01,2013-06-09 14:19:00,
2013-06-09 10:24:00,72.5,58.8,30.04,ESE,123,0.0,0.0,62,0.00,,---,0.00,VWS V14.01,2013-06-09 14:24:00,
2013-06-09 10:29:00,72.4,59.1,30.03,ESE,123,0.0,0.0,63,0.00,,---,0.00,VWS V14.01,2013-06-09 14:29:00,
2013-06-09 10:34:00,72.4,58.7,30.03,SSE,154,0.0,0.0,62,0.00,,---,0.00,VWS V14.01,2013-06-09 14:34:00,
2013-06-09 10:39:00,72.4,60.0,30.03,SSE,154,0.0,0.0,65,0.00,,---,0.00,VWS V14.01,2013-06-09 14:39:00,
2013-06-09 10:44:00,72.5,59.2,30.03,SSE,154,0.0,0.0,63,0.00,,---,0.00,VWS V14.01,2013-06-09 14:44:00,
2013-06-09 10:49:00,72.6,58.8,30.03,SE,142,0.0,0.0,62,0.00,,---,0.00,VWS V14.01,2013-06-09 14:49:00,
2013-06-09 10:54:00,72.7,59.4,30.03,SE,140,0.0,0.0,63,0.00,,---,0.00,VWS V14.01,2013-06-09 14:54:00,
2013-06-09 10:59:00,73.1,57.9,30.03,SE,140,0.0,0.0,59,0.00,,---,0.00,VWS V14.01,2013-06-09 14:59:00,
2013-06-09 11:04:00,73.0,57.8,30.03,SSE,165,0.0,0.0,59,0.00,,---,0.00,VWS V14.01,2013-06-09 15:04:00,
2013-06-09 11:09:00,72.9,57.8,30.03,SSE,165,0.0,0.0,59,0.00,,---,0.00,VWS V14.01,2013-06-09 15:09:00,
2013-06-09 11:14:00,72.7,57.6,30.03,SSE,164,0.0,0.0,59,0.00,,---,0.00,VWS V14.01,2013-06-09 15:14:00,
2013-06-09 11:19:00,72.7,58.0,30.03,SSE,164,0.0,0.0,60,0.00,,---,0.00,VWS V14.01,2013-06-09 15:19:00,
2013-06-09 11:24:00,73.2,58.5,30.03,SSE,164,0.0,0.0,60,0.00,,---,0.00,VWS V14.01,2013-06-09 15:24:00,
2013-06-09 11:30:00,73.6,58.4,30.03,SSE,164,0.0,0.0,59,0.00,,---,0.00,VWS V14.01,2013-06-09 15:30:00,
2013-06-09 11:35:00,73.7,58.5,30.03,SSE,157,0.0,0.0,59,0.00,,---,0.00,VWS V14.01,2013-06-09 15:35:00,
2013-06-09 11:40:00,73.9,57.7,30.03,ESE,113,0.0,0.0,57,0.00,,---,0.00,VWS V14.01,2013-06-09 15:40:00,
2013-06-09 11:45:00,74.0,57.8,30.03,ESE,113,0.0,0.0,57,0.00,,---,0.00,VWS V14.01,2013-06-09 15:45:00,
2013-06-09 11:50:00,74.4,60.1,30.03,ESE,113,0.0,0.0,61,0.00,,---,0.00,VWS V14.01,2013-06-09 15:50:00,
2013-06-09 11:55:00,75.0,58.8,30.03,ESE,104,0.0,0.0,57,0.00,,---,0.00,VWS V14.01,2013-06-09 15:55:00,
2013-06-09 12:00:00,75.3,59.0,30.03,ESE,103,0.0,0.0,57,0.00,,---,0.00,VWS V14.01,2013-06-09 16:00:00,
2013-06-09 12:05:00,75.5,57.7,30.03,SSE,165,0.0,0.0,54,0.00,,---,0.00,VWS V14.01,2013-06-09 16:05:00,
2013-06-09 12:10:00,74.9,58.2,30.03,SSE,165,0.0,0.0,56,0.00,,---,0.00,VWS V14.01,2013-06-09 16:10:00,
2013-06-09 12:15:00,74.5,57.8,30.02,SSE,166,0.0,0.0,56,0.00,,---,0.00,VWS V14.01,2013-06-09 16:15:00,
2013-06-09 12:20:00,74.4,57.2,30.02,SSE,166,0.0,0.0,55,0.00,,---,0.00,VWS V14.01,2013-06-09 16:20:00,
2013-06-09 12:25:00,74.2,56.5,30.02,SSE,167,0.0,0.0,54,0.00,,---,0.00,VWS V14.01,2013-06-09 16:25:00,
2013-06-09 12:30:00,74.1,59.3,30.02,SSE,167,0.0,0.0,60,0.00,,---,0.00,VWS V14.01,2013-06-09 16:30:00,
2013-06-09 12:35:00,74.7,58.0,30.02,NE,54,0.0,0.0,56,0.00,,---,0.00,VWS V14.01,2013-06-09 16:35:00,
2013-06-09 12:40:00,74.9,58.2,30.02,NE,54,0.0,0.0,56,0.00,,---,0.00,VWS V14.01,2013-06-09 16:40:00,
2013-06-09 12:45:00,75.2,58.9,30.02,NE,54,0.0,0.0,57,0.00,,---,0.00,VWS V14.01,2013-06-09 16:45:00,
2013-06-09 12:50:00,75.4,58.1,30.02,NE,54,0.0,0.0,55,0.00,,---,0.00,VWS V14.01,2013-06-09 16:50:00,
2013-06-09 12:55:00,75.3,57.5,30.02,SSE,149,0.0,0.0,54,0.00,,---,0.00,VWS V14.01,2013-06-09 16:55:00,
2013-06-09 13:00:00,75.1,56.3,30.01,SSE,149,0.0,0.0,52,0.00,,---,0.00,VWS V14.01,2013-06-09 17:00:00,